createdAt,value
2016-05-24T12:29:12.151Z,0.2
2016-05-24T12:29:22.135Z,0.1
2016-05-24T12:29:32.119Z,0.1
2016-05-24T12:29:42.122Z,0.1
2016-05-24T12:29:52.107Z,0.1
2016-05-24T12:30:02.279Z,0.1
2016-05-24T12:30:12.091Z,0.2
2016-05-24T12:30:22.076Z,0.2
2016-05-24T12:30:32.060Z,0.2
2016-05-24T12:30:42.063Z,0.2
2016-05-24T12:30:52.047Z,0.2
2016-05-24T12:31:02.032Z,0.2
2016-05-24T12:31:12.016Z,0.2
2016-05-24T12:31:22.016Z,0.2
2016-05-24T12:31:32.000Z,0.2
2016-05-24T12:31:41.988Z,0.2
2016-05-24T12:31:51.988Z,0.2
2016-05-24T12:32:01.972Z,0.2
2016-05-24T12:32:11.957Z,0.2
2016-05-24T12:32:21.972Z,0.2
2016-05-24T12:32:31.941Z,0.2
2016-05-24T12:32:41.943Z,0.2
2016-05-24T12:32:51.927Z,0.2
2016-05-24T12:33:01.912Z,0.2
2016-05-24T12:33:21.896Z,0.1
2016-05-24T12:33:31.880Z,0.2
2016-05-24T12:33:41.868Z,0.3
2016-05-24T12:33:51.868Z,0.3
2016-05-24T12:34:01.852Z,0.3
2016-05-24T12:34:11.852Z,0.3
2016-05-24T12:34:21.837Z,0.3
2016-05-24T12:34:31.837Z,0.3
2016-05-24T12:34:41.824Z,0.3
2016-05-24T12:34:51.808Z,0.3
2016-05-24T12:35:01.793Z,0.3
2016-05-24T12:35:11.793Z,0.3
2016-05-24T12:35:21.777Z,0.3
2016-05-24T12:35:31.793Z,0.3
2016-05-24T12:35:41.764Z,0.4
2016-05-24T12:35:51.749Z,0.4
2016-05-24T12:36:01.749Z,0.4
2016-05-24T12:36:11.733Z,0.4
2016-05-24T12:36:21.733Z,0.4
2016-05-24T12:36:31.718Z,0.4
2016-05-24T12:36:41.704Z,0.4
2016-05-24T12:36:51.704Z,0.4
2016-05-24T12:37:01.688Z,0.4
2016-05-24T12:37:11.673Z,0.4
2016-05-24T12:37:21.673Z,0.4
2016-05-24T12:37:31.657Z,0.4
2016-05-24T12:37:41.660Z,0.4
2016-05-24T12:37:51.644Z,0.4
2016-05-24T12:38:01.629Z,0.4
2016-05-24T12:38:11.629Z,0.4
2016-05-24T12:38:21.629Z,0.4
2016-05-24T12:38:31.613Z,0.4
2016-05-24T12:38:41.600Z,0.4
2016-05-24T12:38:51.646Z,0.4
2016-05-24T12:39:01.584Z,0.4
2016-05-24T12:39:11.568Z,0.4
2016-05-24T12:39:21.568Z,0.4
2016-05-24T12:39:31.553Z,0.4
2016-05-24T12:39:41.540Z,0.4
2016-05-24T12:39:51.540Z,0.4
2016-05-24T12:40:01.524Z,0.4
2016-05-24T12:40:11.509Z,0.4
2016-05-24T12:40:21.509Z,0.4
2016-05-24T12:40:31.509Z,0.4
2016-05-24T12:40:41.496Z,0.4
2016-05-24T12:40:51.481Z,0.4
2016-05-24T12:41:01.465Z,0.4
2016-05-24T12:41:11.465Z,0.4
2016-05-24T12:41:21.449Z,0.4
2016-05-24T12:41:31.449Z,0.4
2016-05-24T12:41:41.436Z,0.4
2016-05-24T12:41:51.420Z,0.4
2016-05-24T12:42:01.420Z,0.4
2016-05-24T12:42:11.404Z,0.4
2016-05-24T12:42:21.404Z,0.4
2016-05-24T12:42:31.389Z,0.4
2016-05-24T12:42:41.376Z,0.4
2016-05-24T12:42:51.376Z,0.4
2016-05-24T12:43:01.361Z,0.4
2016-05-24T12:43:11.361Z,0.4
2016-05-24T12:43:21.361Z,0.4
2016-05-24T12:43:31.329Z,0.4
2016-05-24T12:43:41.331Z,0.4
2016-05-24T12:43:51.394Z,0.4
2016-05-24T12:44:01.316Z,0.4
2016-05-24T12:44:11.550Z,0.4
2016-05-24T12:44:21.300Z,0.4
2016-05-24T12:44:31.284Z,0.4
2016-05-24T12:44:41.272Z,0.4
2016-05-24T12:44:51.272Z,0.4
2016-05-24T12:45:01.272Z,0.4
2016-05-24T12:45:11.334Z,0.4
2016-05-24T12:45:21.819Z,0.4
2016-05-24T12:45:31.694Z,0.4
2016-05-24T12:45:41.229Z,0.4
2016-05-24T12:45:51.213Z,0.4
2016-05-24T12:46:01.213Z,0.4
2016-05-24T12:46:11.198Z,0.4
2016-05-24T12:46:18.729Z,0.4
2016-05-24T12:46:38.731Z,0.3
2016-05-24T12:46:48.731Z,0.4
2016-05-24T12:46:58.793Z,0.4
2016-05-24T12:47:08.715Z,0.4
2016-05-24T12:47:18.700Z,0.4
2016-05-24T12:47:28.700Z,0.4
2016-05-24T12:47:38.686Z,0.4
2016-05-24T12:47:48.670Z,0.4
2016-05-24T12:47:58.733Z,0.4
2016-05-24T12:48:08.655Z,0.4
2016-05-24T12:48:18.655Z,0.4
2016-05-24T12:48:28.358Z,0.4
2016-05-24T12:48:49.252Z,0.3
2016-05-24T12:49:10.439Z,0.2
2016-05-24T12:49:19.220Z,0.4
2016-05-24T12:49:29.220Z,0.4
2016-05-24T12:49:39.223Z,0.4
2016-05-24T12:49:49.739Z,0.4
2016-05-24T12:49:59.192Z,0.4
2016-05-24T12:50:09.176Z,0.4
2016-05-24T12:50:19.255Z,0.4
2016-05-24T12:50:29.161Z,0.4
2016-05-24T12:50:39.164Z,0.4
2016-05-24T12:50:49.148Z,0.4
2016-05-24T12:50:59.226Z,0.4
2016-05-24T12:51:09.133Z,0.4
2016-05-24T12:51:19.148Z,0.4
2016-05-24T12:51:29.117Z,0.4
2016-05-24T12:51:39.120Z,0.4
2016-05-24T12:51:49.104Z,0.4
2016-05-24T12:51:59.089Z,0.4
2016-05-24T12:52:09.089Z,0.4
2016-05-24T12:52:19.073Z,0.4
2016-05-24T12:52:29.073Z,0.4
2016-05-24T12:52:39.059Z,0.4
2016-05-24T12:52:49.044Z,0.4
2016-05-24T12:52:59.044Z,0.4
2016-05-24T12:53:09.028Z,0.4
2016-05-24T12:53:19.013Z,0.4
2016-05-24T12:53:29.013Z,0.4
2016-05-24T12:53:39.000Z,0.4
2016-05-24T12:53:49.016Z,0.4
2016-05-24T12:53:58.984Z,0.4
2016-05-24T12:54:08.984Z,0.4
2016-05-24T12:54:18.969Z,0.4
2016-05-24T12:54:28.953Z,0.4
2016-05-24T12:54:38.956Z,0.4
2016-05-24T12:54:48.956Z,0.4
2016-05-24T12:54:58.940Z,0.4
2016-05-24T12:55:08.940Z,0.4
2016-05-24T12:55:18.925Z,0.4
2016-05-24T12:55:28.909Z,0.4
2016-05-24T12:55:38.911Z,0.4
2016-05-24T12:55:48.896Z,0.4
2016-05-24T12:55:58.911Z,0.4
2016-05-24T12:56:08.880Z,0.4
2016-05-24T12:56:18.864Z,0.4
2016-05-24T12:56:28.958Z,0.4
2016-05-24T12:56:38.852Z,0.4
2016-05-24T12:56:48.852Z,0.4
2016-05-24T12:56:58.836Z,0.4
2016-05-24T12:57:08.836Z,0.4
2016-05-24T12:57:18.820Z,0.4
2016-05-24T12:57:28.805Z,0.4
2016-05-24T12:57:38.807Z,0.4
2016-05-24T12:57:48.791Z,0.4
2016-05-24T12:57:58.791Z,0.4
2016-05-24T12:58:08.776Z,0.4
2016-05-24T12:58:18.760Z,0.4
2016-05-24T12:58:28.760Z,0.4
2016-05-24T12:58:38.747Z,0.4
2016-05-24T12:58:48.747Z,0.4
2016-05-24T12:58:58.732Z,0.4
2016-05-24T12:59:09.591Z,0.4
2016-05-24T12:59:18.716Z,0.4
2016-05-24T12:59:28.716Z,0.4
2016-05-24T12:59:38.703Z,0.4
2016-05-24T12:59:48.703Z,0.4
2016-05-24T12:59:58.688Z,0.4
2016-05-24T13:00:08.688Z,0.4
2016-05-24T13:00:18.657Z,0.4
2016-05-24T13:00:28.657Z,0.4
2016-05-24T13:00:39.018Z,0.4
2016-05-24T13:00:48.643Z,0.4
2016-05-24T13:00:58.784Z,0.4
2016-05-24T13:01:09.221Z,0.4
2016-05-24T13:01:18.612Z,0.4
2016-05-24T13:01:28.612Z,0.4
2016-05-24T13:01:38.599Z,0.4
2016-05-24T13:01:48.583Z,0.4
2016-05-24T13:01:58.583Z,0.4
2016-05-24T13:02:08.568Z,0.4
2016-05-24T13:02:18.568Z,0.4
2016-05-24T13:02:28.552Z,0.4
2016-05-24T13:02:38.571Z,0.4
2016-05-24T13:02:48.540Z,0.4
2016-05-24T13:02:58.524Z,0.4
2016-05-24T13:03:08.524Z,0.4
2016-05-24T13:03:18.508Z,0.4
2016-05-24T13:03:28.493Z,0.4
2016-05-24T13:03:38.495Z,0.4
2016-05-24T13:03:48.479Z,0.4
2016-05-24T13:03:58.479Z,0.4
2016-05-24T13:04:09.698Z,0.4
2016-05-24T13:04:18.448Z,0.4
2016-05-24T13:04:28.448Z,0.4
2016-05-24T13:04:38.435Z,0.4
2016-05-24T13:04:48.529Z,0.4
2016-05-24T14:02:04.433Z,0.1
2016-05-24T14:02:14.417Z,0.2
2016-05-24T14:02:24.417Z,0.2
2016-05-24T14:02:34.402Z,0.2
2016-05-24T14:02:53.966Z,0.2
2016-05-24T14:03:58.484Z,0.2
2016-05-24T14:04:08.468Z,0.2
2016-05-24T14:04:18.453Z,0.2
2016-05-24T14:04:28.453Z,0.2
2016-05-24T14:04:38.437Z,0.2
2016-05-24T14:04:48.425Z,0.2
2016-05-24T14:04:58.425Z,0.2
2016-05-24T14:05:34.800Z,0.1
2016-05-24T14:06:05.788Z,0.3
2016-05-24T14:06:15.772Z,0.3
2016-05-24T14:06:25.756Z,0.3
2016-05-24T14:06:35.741Z,0.3
2016-05-24T14:06:45.743Z,0.3
2016-05-24T14:06:55.727Z,0.3
2016-05-24T14:07:05.712Z,0.3
2016-05-24T14:07:15.712Z,0.3
2016-05-24T14:07:25.696Z,0.3
2016-05-24T14:07:35.680Z,0.3
2016-05-24T14:07:45.668Z,0.3
2016-05-24T14:07:55.668Z,0.3
2016-05-24T14:08:05.668Z,0.3
2016-05-24T14:08:15.683Z,0.3
2016-05-24T14:08:25.636Z,0.3
2016-05-24T14:08:35.621Z,0.3
2016-05-24T14:08:45.623Z,0.3
2016-05-24T14:08:55.607Z,0.3
2016-05-24T14:09:05.638Z,0.3
2016-05-24T14:09:15.592Z,0.3
2016-05-24T14:09:25.576Z,0.3
2016-05-24T14:09:35.576Z,0.3
2016-05-24T14:09:45.563Z,0.3
2016-05-24T14:09:55.548Z,0.3
2016-05-24T14:10:05.548Z,0.3
2016-05-24T14:10:15.532Z,0.3
2016-05-24T14:10:25.516Z,0.3
2016-05-24T14:10:35.516Z,0.3
2016-05-24T14:10:45.504Z,0.3
2016-05-24T14:10:55.488Z,0.3
2016-05-24T14:11:05.488Z,0.3
2016-05-24T14:11:15.488Z,0.3
2016-05-24T14:11:25.457Z,0.3
2016-05-24T14:14:45.404Z,0.1
2016-05-24T14:14:55.404Z,0.2
2016-05-24T14:15:05.389Z,0.2
2016-05-24T14:15:15.373Z,0.3
2016-05-24T14:15:25.358Z,0.3
2016-05-24T14:15:35.358Z,0.3
2016-05-24T14:15:45.486Z,0.3
2016-05-24T14:15:55.704Z,34.1
2016-05-24T14:16:05.392Z,34.1
2016-05-24T14:16:15.314Z,22.7
2016-05-24T14:16:25.314Z,22.7
2016-05-24T14:16:35.298Z,13.6
2016-05-24T14:16:45.285Z,22.7
2016-05-24T14:16:55.270Z,17
2016-05-24T14:17:05.270Z,22.7
2016-05-24T14:17:15.254Z,13.6
2016-05-24T14:17:25.254Z,22.7
2016-05-24T14:17:35.239Z,17
2016-05-24T14:17:45.242Z,34.1
2016-05-24T14:17:55.226Z,13.6
2016-05-24T14:18:05.210Z,17
2016-05-24T14:18:15.195Z,22.7
2016-05-24T14:18:25.195Z,34.1
2016-05-24T14:18:35.179Z,17
2016-05-24T14:18:45.165Z,17
2016-05-24T14:18:55.165Z,13.6
2016-05-24T14:19:05.150Z,13.6
2016-05-24T14:19:15.150Z,13.6
2016-05-24T14:19:25.134Z,17
2016-05-24T14:19:35.119Z,22.7
2016-05-24T14:19:45.122Z,13.6
2016-05-24T14:19:55.106Z,22.7
2016-05-24T14:20:05.106Z,34.1
2016-05-24T14:20:15.090Z,13.6
2016-05-24T14:20:25.075Z,22.7
2016-05-24T14:20:35.075Z,17
2016-05-24T14:20:45.062Z,22.7
2016-05-24T14:20:55.046Z,22.7
2016-05-24T14:21:05.031Z,17
2016-05-24T14:21:15.031Z,17
2016-05-24T14:21:25.015Z,13.6
2016-05-24T14:21:35.015Z,22.7
2016-05-24T14:21:45.003Z,13.6
2016-05-24T14:21:55.003Z,17
2016-05-24T14:22:04.987Z,22.7
2016-05-24T14:22:14.971Z,13.6
2016-05-24T14:22:24.956Z,22.7
2016-05-24T14:22:34.956Z,22.7
2016-05-24T14:22:44.942Z,22.7
2016-05-24T14:22:54.926Z,13.6
2016-05-24T14:23:04.926Z,13.6
2016-05-24T14:23:14.911Z,34.1
2016-05-24T14:23:24.895Z,34.1
2016-05-24T14:23:34.895Z,17
2016-05-24T14:23:44.883Z,17
2016-05-24T14:23:54.867Z,17
2016-05-24T14:24:04.867Z,34.1
2016-05-24T14:24:14.851Z,13.6
2016-05-24T14:24:24.851Z,22.7
2016-05-24T14:24:34.836Z,13.6
2016-05-24T14:24:44.823Z,13.6
2016-05-24T14:24:54.807Z,17
2016-05-24T14:25:04.807Z,22.7
2016-05-24T14:25:14.823Z,17
2016-05-24T14:25:24.792Z,22.7
2016-05-24T14:25:34.776Z,22.7
2016-05-24T14:25:44.763Z,17
2016-05-24T14:25:54.747Z,17
2016-05-24T14:26:04.747Z,22.7
2016-05-24T14:26:14.731Z,13.6
2016-05-24T14:26:24.716Z,22.7
2016-05-24T14:26:34.716Z,17
2016-05-24T14:26:44.703Z,13.6
2016-05-24T14:26:54.687Z,22.7
2016-05-24T14:27:04.672Z,13.6
2016-05-24T14:27:14.672Z,17
2016-05-24T14:27:24.656Z,22.7
2016-05-24T14:27:34.641Z,34.1
2016-05-24T14:27:44.644Z,13.6
2016-05-24T14:27:54.628Z,13.6
2016-05-24T14:28:04.612Z,34.1
2016-05-24T14:28:14.612Z,17
2016-05-24T14:28:24.597Z,17
2016-05-24T14:28:34.675Z,22.7
2016-05-24T14:28:44.567Z,17
2016-05-24T14:28:54.567Z,22.7
2016-05-24T14:29:04.552Z,17
2016-05-24T14:29:14.536Z,22.7
2016-05-24T14:29:24.536Z,17
2016-05-24T14:29:34.521Z,34.1
2016-05-24T14:29:44.508Z,17
2016-05-24T14:29:54.508Z,17
2016-05-24T14:30:04.492Z,17
2016-05-24T14:30:15.086Z,17
2016-05-24T14:30:24.461Z,13.6
2016-05-24T14:30:34.461Z,13.6
2016-05-24T14:30:44.447Z,17
2016-05-24T14:30:54.432Z,17
2016-05-24T14:31:04.432Z,22.7
2016-05-24T14:31:14.635Z,17
2016-05-24T14:31:24.401Z,17
2016-05-24T14:31:34.385Z,34.1
2016-05-24T14:31:44.388Z,13.6
2016-05-24T14:31:54.372Z,22.7
2016-05-24T14:32:04.357Z,22.7
2016-05-24T14:32:14.357Z,17
2016-05-24T14:32:24.341Z,13.6
2016-05-24T14:32:34.325Z,17
2016-05-24T14:32:44.328Z,22.7
2016-05-24T14:32:54.313Z,17
2016-05-24T14:33:04.297Z,22.7
2016-05-24T14:33:14.282Z,22.7
2016-05-24T14:33:24.282Z,34.1
2016-05-24T14:33:34.266Z,13.6
2016-05-24T14:33:44.252Z,34.1
2016-05-24T14:33:54.252Z,17
2016-05-24T14:34:04.237Z,17
2016-05-24T14:34:14.221Z,22.7
2016-05-24T14:34:24.221Z,22.7
2016-05-24T14:34:34.205Z,22.7
2016-05-24T14:34:44.209Z,13.6
2016-05-24T14:34:54.178Z,22.7
2016-05-24T14:35:04.163Z,17
2016-05-24T14:35:14.163Z,17
2016-05-24T14:35:24.147Z,22.7
2016-05-24T14:35:34.131Z,17
2016-05-24T14:35:44.133Z,17
2016-05-24T14:35:54.118Z,13.6
2016-05-24T14:36:04.102Z,17
2016-05-24T14:36:14.102Z,13.6
2016-05-24T14:36:24.086Z,17
2016-05-24T14:36:34.071Z,34.1
2016-05-24T14:36:44.073Z,17
2016-05-24T14:36:54.057Z,17
2016-05-24T14:37:04.042Z,22.7
2016-05-24T14:37:14.026Z,17
2016-05-24T14:37:24.026Z,17
2016-05-24T14:37:34.010Z,22.7
2016-05-24T14:37:43.999Z,22.7
2016-05-24T14:37:53.983Z,13.6
2016-05-24T14:38:03.983Z,17
2016-05-24T14:38:13.967Z,17
2016-05-24T14:38:23.952Z,13.6
2016-05-24T14:38:33.936Z,17
2016-05-24T14:38:43.938Z,13.6
2016-05-24T14:38:53.938Z,17
2016-05-24T14:39:03.907Z,34.1
2016-05-24T14:39:13.907Z,22.7
2016-05-24T14:39:23.891Z,22.7
2016-05-24T14:39:33.876Z,13.6
2016-05-24T14:39:43.862Z,34.1
2016-05-24T14:39:53.862Z,13.6
2016-05-24T14:40:03.846Z,34.1
2016-05-24T14:40:13.846Z,17
2016-05-24T14:40:23.815Z,17
2016-05-24T14:40:33.815Z,22.7
2016-05-24T14:40:43.804Z,22.7
2016-05-24T14:40:53.804Z,17
2016-05-24T14:41:03.788Z,13.6
2016-05-24T14:41:13.772Z,22.7
2016-05-24T14:41:23.757Z,34.1
2016-05-24T14:41:33.757Z,22.7
2016-05-24T14:41:43.743Z,13.6
2016-05-24T14:41:53.727Z,22.7
2016-05-24T14:42:03.712Z,22.7
2016-05-24T14:42:13.712Z,17
2016-05-24T14:42:23.696Z,34.1
2016-05-24T14:42:33.681Z,13.6
2016-05-24T14:42:43.668Z,17
2016-05-24T14:42:53.652Z,22.7
2016-05-24T14:43:03.652Z,22.7
2016-05-24T14:43:13.637Z,17
2016-05-24T14:43:23.621Z,13.6
2016-05-24T14:43:33.621Z,17
2016-05-24T14:43:43.608Z,13.6
2016-05-24T14:43:53.593Z,22.7
2016-05-24T14:44:03.577Z,13.6
2016-05-24T14:44:13.577Z,13.6
2016-05-24T14:44:23.562Z,13.6
2016-05-24T14:44:33.546Z,13.6
2016-05-24T14:44:43.548Z,17
2016-05-24T14:44:53.532Z,17
2016-05-24T14:45:03.517Z,17
2016-05-24T14:45:13.814Z,13.6
2016-05-24T14:45:23.501Z,22.7
2016-05-24T14:45:33.485Z,13.6
2016-05-24T14:45:43.738Z,13.6
2016-05-24T14:45:53.676Z,17
2016-05-24T14:46:03.457Z,13.6
2016-05-24T14:46:13.442Z,13.6
2016-05-24T14:46:23.442Z,17
2016-05-24T14:46:33.410Z,17
2016-05-24T14:46:43.412Z,13.6
2016-05-24T14:46:53.397Z,13.6
2016-05-24T14:47:03.397Z,22.7
2016-05-24T14:47:13.381Z,22.7
2016-05-24T14:47:23.365Z,17
2016-05-24T14:47:33.350Z,17
2016-05-24T14:47:43.353Z,13.6
2016-05-24T14:47:53.337Z,17
2016-05-24T14:48:03.322Z,13.6
2016-05-24T14:48:13.306Z,22.7
2016-05-24T14:48:23.306Z,22.7
2016-05-24T14:48:33.290Z,13.6
2016-05-24T14:48:43.278Z,22.7
2016-05-24T14:48:53.262Z,17
2016-05-24T14:49:03.262Z,13.6
2016-05-24T14:49:13.246Z,13.6
2016-05-24T14:49:23.231Z,13.6
2016-05-24T14:49:33.231Z,34.1
2016-05-24T14:49:43.218Z,34.1
2016-05-24T14:49:53.203Z,13.6
2016-05-24T14:50:03.187Z,13.6
2016-05-24T14:50:13.187Z,34.1
2016-05-24T14:50:23.171Z,17
2016-05-24T14:50:33.156Z,13.6
2016-05-24T14:50:43.142Z,17
2016-05-24T14:50:53.142Z,22.7
2016-05-24T14:51:03.126Z,22.7
2016-05-24T14:51:13.111Z,13.6
2016-05-24T14:51:23.095Z,22.7
2016-05-24T14:51:33.095Z,17
2016-05-24T14:51:43.083Z,17
2016-05-24T14:51:53.067Z,17
2016-05-24T14:52:03.067Z,34.1
2016-05-24T14:52:13.051Z,13.6
2016-05-24T14:52:23.036Z,22.7
2016-05-24T14:52:33.020Z,22.7
2016-05-24T14:52:43.023Z,13.6
2016-05-24T14:52:53.007Z,34.1
2016-05-24T14:53:02.992Z,13.6
2016-05-24T14:53:12.976Z,13.6
2016-05-24T14:53:22.976Z,34.1
2016-05-24T14:53:32.976Z,13.6
2016-05-24T14:53:42.947Z,13.6
2016-05-24T14:53:52.947Z,22.7
2016-05-24T14:54:02.931Z,13.6
2016-05-24T14:54:12.916Z,17
2016-05-24T14:54:22.900Z,22.7
2016-05-24T14:54:32.900Z,13.6
2016-05-24T14:54:42.887Z,13.6
2016-05-24T14:54:52.872Z,22.7
2016-05-24T14:55:02.856Z,22.7
2016-05-24T14:55:12.856Z,22.7
2016-05-24T14:55:22.841Z,34.1
2016-05-24T14:55:32.825Z,13.6
2016-05-24T14:55:42.827Z,34.1
2016-05-24T14:55:52.811Z,22.7
2016-05-24T14:56:02.796Z,22.7
2016-05-24T14:56:12.796Z,34.1
2016-05-24T14:56:22.764Z,17
2016-05-24T14:56:32.764Z,22.7
2016-05-24T14:56:42.753Z,22.7
2016-05-24T14:56:52.737Z,13.6
2016-05-24T14:57:02.737Z,22.7
2016-05-24T14:57:12.722Z,17
2016-05-24T14:57:22.706Z,22.7
2016-05-24T14:57:32.690Z,13.6
2016-05-24T14:57:42.692Z,34.1
2016-05-24T14:57:52.677Z,17
2016-05-24T14:58:02.661Z,17
2016-05-24T14:58:12.661Z,34.1
2016-05-24T14:58:22.645Z,34.1
2016-05-24T14:58:32.630Z,17
2016-05-24T14:58:42.617Z,13.6
2016-05-24T14:58:52.617Z,17
2016-05-24T14:59:02.602Z,34.1
2016-05-24T14:59:12.586Z,13.6
2016-05-24T14:59:22.570Z,17
2016-05-24T14:59:32.570Z,17
2016-05-24T14:59:42.557Z,17
2016-05-24T14:59:52.541Z,22.7
2016-05-24T15:00:02.525Z,22.7
2016-05-24T15:00:12.525Z,22.7
2016-05-24T15:00:22.682Z,13.6
2016-05-24T15:00:32.510Z,17
2016-05-24T15:00:42.966Z,34.1
2016-05-24T15:00:52.482Z,13.6
2016-05-24T15:01:02.544Z,17
2016-05-24T15:01:12.450Z,34.1
2016-05-24T15:01:22.450Z,17
2016-05-24T15:01:32.435Z,17
2016-05-24T15:01:42.422Z,17
2016-05-24T15:01:52.422Z,17
2016-05-24T15:02:02.406Z,34.1
2016-05-24T15:02:12.391Z,13.6
2016-05-24T15:02:22.375Z,13.6
2016-05-24T15:02:32.375Z,17
2016-05-24T15:02:42.363Z,34.1
2016-05-24T15:02:52.347Z,17
2016-05-24T15:03:02.331Z,34.1
2016-05-24T15:03:12.331Z,22.7
2016-05-24T15:03:22.316Z,13.6
2016-05-24T15:03:32.300Z,22.7
2016-05-24T15:03:42.286Z,22.7
2016-05-24T15:03:52.286Z,34.1
2016-05-24T15:04:02.271Z,13.6
2016-05-24T15:04:12.255Z,17
2016-05-24T15:04:22.255Z,17
2016-05-24T15:04:32.240Z,22.7
2016-05-24T15:04:42.227Z,17
2016-05-24T15:04:52.211Z,17
2016-05-24T15:05:02.211Z,17
2016-05-24T15:05:12.196Z,17
2016-05-24T15:05:22.180Z,13.6
2016-05-24T15:05:32.164Z,13.6
2016-05-24T15:05:42.166Z,34.1
2016-05-24T15:05:52.151Z,34.1
2016-05-24T15:06:02.135Z,13.6
2016-05-24T15:06:12.135Z,34.1
2016-05-24T15:06:22.120Z,13.6
2016-05-24T15:06:32.104Z,17
2016-05-24T15:06:42.091Z,34.1
2016-05-24T15:06:52.076Z,17
2016-05-24T15:07:02.076Z,34.1
2016-05-24T15:07:12.060Z,17
2016-05-24T15:07:22.044Z,22.7
2016-05-24T15:07:32.044Z,13.6
2016-05-24T15:07:42.032Z,13.6
2016-05-24T15:07:52.016Z,17
2016-05-24T15:08:02.001Z,13.6
2016-05-24T15:08:12.001Z,22.7
2016-05-24T15:08:21.985Z,34.1
2016-05-24T15:08:31.969Z,13.6
2016-05-24T15:08:41.956Z,34.1
2016-05-24T15:08:51.956Z,22.7
2016-05-24T15:09:01.940Z,13.6
2016-05-24T15:09:11.924Z,13.6
2016-05-24T15:09:21.909Z,22.7
2016-05-24T15:09:31.909Z,34.1
2016-05-24T15:09:41.897Z,13.6
2016-05-24T15:09:51.897Z,34.1
2016-05-24T15:10:01.866Z,34.1
2016-05-24T15:10:11.866Z,13.6
2016-05-24T15:10:21.850Z,13.6
2016-05-24T15:10:31.835Z,34.1
2016-05-24T15:10:41.837Z,17
2016-05-24T15:10:51.821Z,13.6
2016-05-24T15:11:01.805Z,11.3
2016-05-24T15:11:11.790Z,34.1
2016-05-24T15:11:21.790Z,22.7
2016-05-24T15:11:31.774Z,13.6
2016-05-24T15:11:41.762Z,17
2016-05-24T15:11:51.746Z,22.7
2016-05-24T15:12:01.746Z,17
2016-05-24T15:12:11.730Z,22.7
2016-05-24T15:12:21.730Z,13.6
2016-05-24T15:12:31.699Z,17
2016-05-24T15:12:41.702Z,13.6
2016-05-24T15:12:51.686Z,17
2016-05-24T15:13:01.671Z,22.7
2016-05-24T15:13:11.655Z,17
2016-05-24T15:13:21.655Z,22.7
2016-05-24T15:13:31.640Z,17
2016-05-24T15:13:41.626Z,22.7
2016-05-24T15:13:51.626Z,17
2016-05-24T15:14:01.610Z,34.1
2016-05-24T15:14:11.595Z,17
2016-05-24T15:14:21.595Z,17
2016-05-24T15:14:31.579Z,13.6
2016-05-24T15:14:41.566Z,17
2016-05-24T15:14:51.551Z,17
2016-05-24T15:15:01.535Z,17
2016-05-24T15:15:11.535Z,13.6
2016-05-24T15:15:21.535Z,17
2016-05-24T15:15:31.504Z,13.6
2016-05-24T15:15:41.507Z,17
2016-05-24T15:15:52.023Z,13.6
2016-05-24T15:16:01.929Z,17
2016-05-24T15:16:11.460Z,13.6
2016-05-24T15:16:21.460Z,13.6
2016-05-24T15:16:31.444Z,22.7
2016-05-24T15:16:41.431Z,13.6
2016-05-24T15:16:51.415Z,13.6
2016-05-24T15:17:01.415Z,34.1
2016-05-24T15:17:11.400Z,17
2016-05-24T15:17:21.384Z,13.6
2016-05-24T15:17:31.384Z,17
2016-05-24T15:17:41.368Z,34.1
2016-05-24T15:17:51.356Z,34.1
2016-05-24T15:18:01.340Z,34.1
2016-05-24T15:18:11.340Z,13.6
2016-05-24T15:18:21.324Z,22.7
2016-05-24T15:18:31.309Z,13.6
2016-05-24T15:18:41.293Z,34.1
2016-05-24T15:18:51.295Z,13.6
2016-05-24T15:19:01.280Z,17
2016-05-24T15:19:11.264Z,22.7
2016-05-24T15:19:21.248Z,34.1
2016-05-24T15:19:31.248Z,17
2016-05-24T15:19:41.233Z,17
2016-05-24T15:19:51.220Z,22.7
2016-05-24T15:20:01.220Z,13.6
2016-05-24T15:20:11.204Z,34.1
2016-05-24T15:20:21.189Z,22.7
2016-05-24T15:20:31.173Z,13.6
2016-05-24T15:20:41.173Z,34.1
2016-05-24T15:20:51.161Z,17
2016-05-24T15:21:01.145Z,17
2016-05-24T15:21:11.129Z,17
2016-05-24T15:21:21.129Z,17
2016-05-24T15:21:31.114Z,22.7
2016-05-24T15:21:41.098Z,34.1
2016-05-24T15:21:51.085Z,17
2016-05-24T15:22:01.085Z,22.7
2016-05-24T15:22:11.070Z,34.1
2016-05-24T15:22:21.054Z,13.6
2016-05-24T15:22:31.039Z,17
2016-05-24T15:22:41.039Z,17
2016-05-24T15:22:51.025Z,34.1
2016-05-24T15:23:01.009Z,13.6
2016-05-24T15:23:10.994Z,34.1
2016-05-24T15:23:20.994Z,22.7
2016-05-24T15:23:30.978Z,22.7
2016-05-24T15:23:40.962Z,13.6
2016-05-24T15:23:50.950Z,22.7
2016-05-24T15:24:00.950Z,17
2016-05-24T15:24:10.934Z,22.7
2016-05-24T15:24:20.934Z,17
2016-05-24T15:24:30.919Z,34.1
2016-05-24T15:24:40.903Z,17
2016-05-24T15:24:50.889Z,17
2016-05-24T15:25:00.874Z,22.7
2016-05-24T15:25:10.874Z,17
2016-05-24T15:25:20.858Z,17
2016-05-24T15:25:30.842Z,17
2016-05-24T15:25:40.827Z,34.1
2016-05-24T15:25:50.830Z,22.7
2016-05-24T15:26:00.814Z,13.6
2016-05-24T15:26:10.799Z,34.1
2016-05-24T15:26:20.799Z,17
2016-05-24T15:26:30.783Z,22.7
2016-05-24T15:26:40.767Z,34.1
2016-05-24T15:26:50.771Z,17
2016-05-24T15:27:00.756Z,13.6
2016-05-24T15:27:10.740Z,22.7
2016-05-24T15:27:20.724Z,22.7
2016-05-24T15:27:30.709Z,17
2016-05-24T15:27:40.709Z,13.6
2016-05-24T15:27:50.694Z,22.7
2016-05-24T15:28:00.679Z,22.7
2016-05-24T15:28:10.663Z,17
2016-05-24T15:28:20.663Z,22.7
2016-05-24T15:28:30.647Z,17
2016-05-24T15:28:40.647Z,13.6
2016-05-24T15:28:50.635Z,13.6
2016-05-24T15:29:00.619Z,17
2016-05-24T15:29:10.603Z,17
2016-05-24T15:29:20.588Z,13.6
2016-05-24T15:29:30.588Z,34.1
2016-05-24T15:29:40.572Z,17
2016-05-24T15:29:50.560Z,34.1
2016-05-24T15:30:00.544Z,34.1
2016-05-24T15:30:10.528Z,34.1
2016-05-24T15:30:20.528Z,13.6
2016-05-24T15:30:30.513Z,34.1
2016-05-24T15:30:40.841Z,22.7
2016-05-24T15:30:50.516Z,34.1
2016-05-24T15:31:00.484Z,17
2016-05-24T15:31:10.578Z,13.6
2016-05-24T15:31:20.469Z,17
2016-05-24T15:31:30.453Z,34.1
2016-05-24T15:31:40.438Z,22.7
2016-05-24T15:31:50.424Z,22.7
2016-05-24T15:32:00.408Z,13.6
2016-05-24T15:32:10.408Z,17
2016-05-24T15:32:20.393Z,22.7
2016-05-24T15:32:30.377Z,17
2016-05-24T15:32:40.377Z,17
2016-05-24T15:32:50.364Z,17
2016-05-24T15:33:00.349Z,13.6
2016-05-24T15:33:10.333Z,34.1
2016-05-24T15:33:20.333Z,13.6
2016-05-24T15:33:30.318Z,17
2016-05-24T15:33:40.302Z,22.7
2016-05-24T15:33:50.305Z,17
2016-05-24T15:34:00.289Z,22.7
2016-05-24T15:34:10.274Z,17
2016-05-24T15:34:20.258Z,13.6
2016-05-24T15:34:30.242Z,13.6
2016-05-24T15:34:40.242Z,22.7
2016-05-24T15:34:50.229Z,17
2016-05-24T15:35:00.213Z,17
2016-05-24T15:35:10.213Z,34.1
2016-05-24T15:35:20.198Z,22.7
2016-05-24T15:35:30.182Z,13.6
2016-05-24T15:35:40.166Z,17
2016-05-24T15:35:50.154Z,13.6
2016-05-24T15:36:00.154Z,13.6
2016-05-24T15:36:10.138Z,17
2016-05-24T15:36:20.122Z,17
2016-05-24T15:36:30.122Z,17
2016-05-24T15:36:40.107Z,17
2016-05-24T15:36:50.094Z,17
2016-05-24T15:37:00.079Z,34.1
2016-05-24T15:37:10.079Z,13.6
2016-05-24T15:37:20.063Z,17
2016-05-24T15:37:30.047Z,22.7
2016-05-24T15:37:40.047Z,34.1
2016-05-24T15:37:50.034Z,22.7
2016-05-24T15:38:00.018Z,34.1
2016-05-24T15:38:10.002Z,22.7
2016-05-24T15:38:20.002Z,34.1
2016-05-24T15:38:29.987Z,22.7
2016-05-24T15:38:39.971Z,17
2016-05-24T15:38:49.959Z,17
2016-05-24T15:38:59.959Z,22.7
2016-05-24T15:39:09.943Z,17
2016-05-24T15:39:19.927Z,17
2016-05-24T15:39:29.912Z,34.1
2016-05-24T15:39:39.912Z,34.1
2016-05-24T15:39:49.899Z,34.1
2016-05-24T15:39:59.883Z,17
2016-05-24T15:40:09.868Z,17
2016-05-24T15:40:19.868Z,22.7
2016-05-24T15:40:29.852Z,22.7
2016-05-24T15:40:39.852Z,13.6
2016-05-24T15:40:49.840Z,13.6
2016-05-24T15:40:59.824Z,17
2016-05-24T15:41:09.808Z,13.6
2016-05-24T15:41:19.793Z,22.7
2016-05-24T15:41:29.793Z,17
2016-05-24T15:41:39.777Z,17
2016-05-24T15:41:49.763Z,13.6
2016-05-24T15:41:59.748Z,17
2016-05-24T15:42:09.748Z,22.7
2016-05-24T15:42:19.732Z,34.1
2016-05-24T15:42:29.717Z,17
2016-05-24T15:42:39.701Z,17
2016-05-24T15:42:49.704Z,22.7
2016-05-24T15:42:59.688Z,13.6
2016-05-24T15:43:09.673Z,34.1
2016-05-24T15:43:19.657Z,22.7
2016-05-24T15:43:29.657Z,13.6
2016-05-24T15:43:39.641Z,13.6
2016-05-24T15:43:49.628Z,34.1
2016-05-24T15:43:59.628Z,13.6
2016-05-24T15:44:09.612Z,17
2016-05-24T15:44:19.597Z,22.7
2016-05-24T15:44:29.597Z,13.6
2016-05-24T15:44:39.565Z,13.6
2016-05-24T15:44:49.569Z,22.7
2016-05-24T15:44:59.554Z,13.6
2016-05-24T15:45:09.538Z,22.7
2016-05-24T15:45:19.538Z,22.7
2016-05-24T15:45:29.522Z,17
2016-05-24T15:45:39.507Z,11.3
2016-05-24T15:45:49.604Z,13.6
2016-05-24T15:45:59.494Z,17
2016-05-24T15:46:09.525Z,13.6
2016-05-24T15:46:19.463Z,22.7
2016-05-24T15:46:29.447Z,22.7
2016-05-24T15:46:39.447Z,13.6
2016-05-24T15:46:49.434Z,22.7
2016-05-24T15:46:59.418Z,17
2016-05-24T15:47:09.418Z,34.1
2016-05-24T15:47:19.402Z,22.7
2016-05-24T15:47:29.387Z,13.6
2016-05-24T15:47:39.371Z,17
2016-05-24T15:47:49.358Z,22.7
2016-05-24T15:47:59.358Z,13.6
2016-05-24T15:48:09.342Z,13.6
2016-05-24T15:48:19.342Z,17